sensor_id;sensor_type;location;lat;lon;timestamp;pressure;altitude;pressure_sealevel;temperature;humidity
17764;BME280;22245;52.832;13.816;2023-02-19T00:01:45;101238.81;;;5.52;82.43
17764;BME280;22245;52.832;13.816;2023-02-19T00:05:07;101240.50;;;5.53;82.18
17764;BME280;22245;52.832;13.816;2023-02-19T00:08:29;101242.38;;;5.51;82.10
17764;BME280;22245;52.832;13.816;2023-02-19T00:11:51;101248.78;;;5.47;81.99
17764;BME280;22245;52.832;13.816;2023-02-19T00:15:14;101242.56;;;5.48;82.12
17764;BME280;22245;52.832;13.816;2023-02-19T00:18:36;101237.28;;;5.48;81.95
17764;BME280;22245;52.832;13.816;2023-02-19T00:21:57;101238.38;;;5.44;82.09
17764;BME280;22245;52.832;13.816;2023-02-19T00:25:19;101239.31;;;5.43;81.39
17764;BME280;22245;52.832;13.816;2023-02-19T00:28:41;101235.75;;;5.44;81.31
17764;BME280;22245;52.832;13.816;2023-02-19T00:32:04;101231.41;;;5.43;81.24
17764;BME280;22245;52.832;13.816;2023-02-19T00:35:26;101238.81;;;5.36;81.03
17764;BME280;22245;52.832;13.816;2023-02-19T00:38:48;101231.81;;;5.35;80.82
17764;BME280;22245;52.832;13.816;2023-02-19T00:42:10;101236.84;;;5.24;79.80
17764;BME280;22245;52.832;13.816;2023-02-19T00:45:32;101238.78;;;5.20;80.46
17764;BME280;22245;52.832;13.816;2023-02-19T00:48:57;101241.88;;;5.12;81.11
17764;BME280;22245;52.832;13.816;2023-02-19T00:52:18;101243.06;;;5.06;80.69
17764;BME280;22245;52.832;13.816;2023-02-19T00:55:40;101231.19;;;4.98;81.01
17764;BME280;22245;52.832;13.816;2023-02-19T00:59:02;101237.41;;;4.97;81.32
17764;BME280;22245;52.832;13.816;2023-02-19T01:02:24;101244.91;;;5.04;81.13
17764;BME280;22245;52.832;13.816;2023-02-19T01:05:47;101229.59;;;4.95;80.90
17764;BME280;22245;52.832;13.816;2023-02-19T01:09:09;101236.44;;;4.82;80.36
17764;BME280;22245;52.832;13.816;2023-02-19T01:12:31;101230.72;;;4.73;80.64
17764;BME280;22245;52.832;13.816;2023-02-19T01:15:53;101231.66;;;4.72;80.27
17764;BME280;22245;52.832;13.816;2023-02-19T01:19:16;101226.69;;;4.66;80.34
17764;BME280;22245;52.832;13.816;2023-02-19T01:22:39;101218.09;;;4.62;80.69
17764;BME280;22245;52.832;13.816;2023-02-19T01:26:03;101226.59;;;4.68;81.13
17764;BME280;22245;52.832;13.816;2023-02-19T01:29:25;101203.34;;;4.58;80.55
17764;BME280;22245;52.832;13.816;2023-02-19T01:32:47;101195.22;;;4.63;80.80
17764;BME280;22245;52.832;13.816;2023-02-19T01:36:10;101181.84;;;4.66;80.53
17764;BME280;22245;52.832;13.816;2023-02-19T01:39:33;101195.13;;;4.64;80.36
17764;BME280;22245;52.832;13.816;2023-02-19T01:42:55;101196.22;;;4.60;80.29
17764;BME280;22245;52.832;13.816;2023-02-19T01:46:17;101182.94;;;4.62;80.62
17764;BME280;22245;52.832;13.816;2023-02-19T01:49:41;101188.06;;;4.65;80.73
17764;BME280;22245;52.832;13.816;2023-02-19T01:53:11;101179.13;;;4.68;80.98
17764;BME280;22245;52.832;13.816;2023-02-19T01:56:37;101180.75;;;4.70;80.31
17764;BME280;22245;52.832;13.816;2023-02-19T02:00:04;101177.19;;;4.71;80.90
17764;BME280;22245;52.832;13.816;2023-02-19T02:03:34;101185.09;;;4.71;80.51
17764;BME280;22245;52.832;13.816;2023-02-19T02:06:58;101178.88;;;4.72;80.78
17764;BME280;22245;52.832;13.816;2023-02-19T02:10:21;101170.03;;;4.73;80.77
17764;BME280;22245;52.832;13.816;2023-02-19T02:13:45;101171.72;;;4.74;81.03
17764;BME280;22245;52.832;13.816;2023-02-19T02:17:11;101155.84;;;4.76;81.14
17764;BME280;22245;52.832;13.816;2023-02-19T02:20:56;101140.84;;;4.76;80.80
17764;BME280;22245;52.832;13.816;2023-02-19T02:24:36;101133.84;;;4.75;81.08
17764;BME280;22245;52.832;13.816;2023-02-19T02:28:16;101133.69;;;4.78;81.15
17764;BME280;22245;52.832;13.816;2023-02-19T02:31:46;101132.75;;;4.80;80.77
17764;BME280;22245;52.832;13.816;2023-02-19T02:35:13;101141.53;;;4.80;80.82
17764;BME280;22245;52.832;13.816;2023-02-19T02:38:41;101137.09;;;4.81;80.94
17764;BME280;22245;52.832;13.816;2023-02-19T02:42:04;101139.66;;;4.82;81.13
17764;BME280;22245;52.832;13.816;2023-02-19T02:45:52;101147.47;;;4.84;80.91
17764;BME280;22245;52.832;13.816;2023-02-19T02:49:24;101141.44;;;4.82;81.11
17764;BME280;22245;52.832;13.816;2023-02-19T02:52:50;101133.50;;;4.82;81.01
17764;BME280;22245;52.832;13.816;2023-02-19T02:56:30;101129.28;;;4.79;80.82
17764;BME280;22245;52.832;13.816;2023-02-19T02:59:53;101131.97;;;4.77;81.02
17764;BME280;22245;52.832;13.816;2023-02-19T03:03:19;101145.94;;;4.80;80.80
17764;BME280;22245;52.832;13.816;2023-02-19T03:06:44;101150.28;;;4.81;80.86
17764;BME280;22245;52.832;13.816;2023-02-19T03:10:11;101164.25;;;4.83;81.11
17764;BME280;22245;52.832;13.816;2023-02-19T03:13:35;101160.66;;;4.84;81.34
17764;BME280;22245;52.832;13.816;2023-02-19T03:17:20;101164.06;;;4.86;81.09
17764;BME280;22245;52.832;13.816;2023-02-19T03:21:01;101166.66;;;4.87;80.84
17764;BME280;22245;52.832;13.816;2023-02-19T03:24:28;101172.09;;;4.84;80.83
17764;BME280;22245;52.832;13.816;2023-02-19T03:28:11;101171.22;;;4.84;81.36
17764;BME280;22245;52.832;13.816;2023-02-19T03:31:36;101168.75;;;4.81;81.25
17764;BME280;22245;52.832;13.816;2023-02-19T03:35:00;101173.19;;;4.80;81.64
17764;BME280;22245;52.832;13.816;2023-02-19T03:38:27;101182.28;;;4.74;81.35
17764;BME280;22245;52.832;13.816;2023-02-19T03:41:58;101181.28;;;4.77;81.79
17764;BME280;22245;52.832;13.816;2023-02-19T03:45:31;101189.44;;;4.72;82.31
17764;BME280;22245;52.832;13.816;2023-02-19T03:48:57;101186.88;;;4.71;82.07
17764;BME280;22245;52.832;13.816;2023-02-19T03:52:23;101187.78;;;4.70;81.61
17764;BME280;22245;52.832;13.816;2023-02-19T03:55:55;101193.34;;;4.65;81.49
17764;BME280;22245;52.832;13.816;2023-02-19T03:59:27;101184.38;;;4.68;81.33
17764;BME280;22245;52.832;13.816;2023-02-19T04:02:56;101191.03;;;4.59;80.08
17764;BME280;22245;52.832;13.816;2023-02-19T04:06:21;101199.72;;;4.43;79.94
17764;BME280;22245;52.832;13.816;2023-02-19T04:09:47;101183.53;;;4.33;79.63
17764;BME280;22245;52.832;13.816;2023-02-19T04:13:18;101190.44;;;4.36;78.42
17764;BME280;22245;52.832;13.816;2023-02-19T04:16:46;101188.91;;;4.32;78.30
17764;BME280;22245;52.832;13.816;2023-02-19T04:20:12;101185.09;;;4.38;77.94
17764;BME280;22245;52.832;13.816;2023-02-19T04:23:37;101188.41;;;4.41;77.52
17764;BME280;22245;52.832;13.816;2023-02-19T04:27:01;101199.50;;;4.30;77.93
17764;BME280;22245;52.832;13.816;2023-02-19T04:30:23;101203.00;;;4.31;78.01
17764;BME280;22245;52.832;13.816;2023-02-19T04:33:47;101204.56;;;4.35;77.43
17764;BME280;22245;52.832;13.816;2023-02-19T04:37:09;101208.66;;;4.23;77.57
17764;BME280;22245;52.832;13.816;2023-02-19T04:40:30;101205.34;;;4.19;77.72
17764;BME280;22245;52.832;13.816;2023-02-19T04:43:52;101203.06;;;4.29;77.30
17764;BME280;22245;52.832;13.816;2023-02-19T04:47:14;101190.59;;;4.33;76.57
17764;BME280;22245;52.832;13.816;2023-02-19T04:50:38;101197.03;;;4.27;76.67
17764;BME280;22245;52.832;13.816;2023-02-19T04:54:00;101207.75;;;4.24;77.59
17764;BME280;22245;52.832;13.816;2023-02-19T04:57:22;101199.75;;;4.26;77.77
17764;BME280;22245;52.832;13.816;2023-02-19T05:00:44;101200.22;;;4.16;78.19
17764;BME280;22245;52.832;13.816;2023-02-19T05:04:06;101197.34;;;4.21;78.04
17764;BME280;22245;52.832;13.816;2023-02-19T05:07:29;101201.03;;;4.18;78.12
17764;BME280;22245;52.832;13.816;2023-02-19T05:10:51;101196.53;;;4.20;77.79
17764;BME280;22245;52.832;13.816;2023-02-19T05:14:13;101187.69;;;4.22;77.29
17764;BME280;22245;52.832;13.816;2023-02-19T05:17:35;101194.94;;;4.16;78.23
17764;BME280;22245;52.832;13.816;2023-02-19T05:20:57;101184.25;;;4.19;78.60
17764;BME280;22245;52.832;13.816;2023-02-19T05:24:21;101183.34;;;4.20;79.14
17764;BME280;22245;52.832;13.816;2023-02-19T05:27:43;101177.13;;;4.22;78.71
17764;BME280;22245;52.832;13.816;2023-02-19T05:31:07;101168.28;;;4.23;78.94
17764;BME280;22245;52.832;13.816;2023-02-19T05:34:30;101167.50;;;4.20;79.00
17764;BME280;22245;52.832;13.816;2023-02-19T05:37:51;101165.03;;;4.17;79.12
17764;BME280;22245;52.832;13.816;2023-02-19T05:41:16;101166.88;;;4.15;79.18
17764;BME280;22245;52.832;13.816;2023-02-19T05:44:37;101165.16;;;4.14;79.99
17764;BME280;22245;52.832;13.816;2023-02-19T05:48:00;101166.25;;;4.10;79.88
17764;BME280;22245;52.832;13.816;2023-02-19T05:51:23;101169.00;;;4.09;79.89
17764;BME280;22245;52.832;13.816;2023-02-19T05:54:45;101174.31;;;4.07;79.98
17764;BME280;22245;52.832;13.816;2023-02-19T05:58:08;101184.19;;;4.03;79.76
17764;BME280;22245;52.832;13.816;2023-02-19T06:01:30;101189.53;;;4.02;79.40
17764;BME280;22245;52.832;13.816;2023-02-19T06:04:51;101193.19;;;3.99;79.72
17764;BME280;22245;52.832;13.816;2023-02-19T06:08:14;101203.03;;;3.96;79.61
17764;BME280;22245;52.832;13.816;2023-02-19T06:11:36;101204.72;;;3.97;80.29
17764;BME280;22245;52.832;13.816;2023-02-19T06:14:59;101204.72;;;3.97;80.12
17764;BME280;22245;52.832;13.816;2023-02-19T06:18:21;101206.50;;;3.96;80.25
17764;BME280;22245;52.832;13.816;2023-02-19T06:21:43;101206.59;;;3.95;80.07
17764;BME280;22245;52.832;13.816;2023-02-19T06:25:06;101216.09;;;3.97;80.10
17764;BME280;22245;52.832;13.816;2023-02-19T06:28:31;101229.69;;;3.89;80.53
17764;BME280;22245;52.832;13.816;2023-02-19T06:31:54;101226.13;;;3.90;80.04
17764;BME280;22245;52.832;13.816;2023-02-19T06:35:16;101240.91;;;3.93;79.57
17764;BME280;22245;52.832;13.816;2023-02-19T06:38:38;101243.53;;;3.93;80.60
17764;BME280;22245;52.832;13.816;2023-02-19T06:42:00;101245.50;;;3.89;80.37
17764;BME280;22245;52.832;13.816;2023-02-19T06:45:22;101244.63;;;3.89;80.05
17764;BME280;22245;52.832;13.816;2023-02-19T06:48:45;101257.91;;;3.87;81.09
17764;BME280;22245;52.832;13.816;2023-02-19T06:52:06;101257.75;;;3.90;80.02
17764;BME280;22245;52.832;13.816;2023-02-19T06:55:28;101261.16;;;3.93;80.45
17764;BME280;22245;52.832;13.816;2023-02-19T06:58:50;101272.63;;;3.91;80.51
17764;BME280;22245;52.832;13.816;2023-02-19T07:02:12;101279.50;;;3.94;80.09
17764;BME280;22245;52.832;13.816;2023-02-19T07:05:35;101293.56;;;3.95;80.24
17764;BME280;22245;52.832;13.816;2023-02-19T07:08:57;101294.63;;;3.90;80.11
17764;BME280;22245;52.832;13.816;2023-02-19T07:12:19;101300.69;;;3.93;80.34
17764;BME280;22245;52.832;13.816;2023-02-19T07:15:41;101301.47;;;3.95;80.26
17764;BME280;22245;52.832;13.816;2023-02-19T07:19:02;101306.63;;;3.96;80.09
17764;BME280;22245;52.832;13.816;2023-02-19T07:22:25;101310.28;;;3.94;80.54
17764;BME280;22245;52.832;13.816;2023-02-19T07:25:47;101319.03;;;3.94;80.25
17764;BME280;22245;52.832;13.816;2023-02-19T07:29:09;101326.94;;;3.94;80.89
17764;BME280;22245;52.832;13.816;2023-02-19T07:32:30;101322.44;;;3.96;80.80
17764;BME280;22245;52.832;13.816;2023-02-19T07:35:52;101332.22;;;3.94;80.36
17764;BME280;22245;52.832;13.816;2023-02-19T07:39:16;101334.69;;;3.97;81.01
17764;BME280;22245;52.832;13.816;2023-02-19T07:42:38;101332.06;;;3.97;81.07
17764;BME280;22245;52.832;13.816;2023-02-19T07:46:01;101337.44;;;3.96;80.67
17764;BME280;22245;52.832;13.816;2023-02-19T07:49:24;101341.78;;;3.97;80.92
17764;BME280;22245;52.832;13.816;2023-02-19T07:52:45;101340.13;;;3.94;80.43
17764;BME280;22245;52.832;13.816;2023-02-19T07:56:10;101353.03;;;4.00;80.74
17764;BME280;22245;52.832;13.816;2023-02-19T07:59:31;101367.13;;;3.99;81.20
17764;BME280;22245;52.832;13.816;2023-02-19T08:02:53;101372.41;;;3.99;81.04
17764;BME280;22245;52.832;13.816;2023-02-19T08:06:20;101386.50;;;3.98;80.60
17764;BME280;22245;52.832;13.816;2023-02-19T08:09:42;101391.91;;;3.95;79.98
17764;BME280;22245;52.832;13.816;2023-02-19T08:13:05;101405.88;;;3.97;80.94
17764;BME280;22245;52.832;13.816;2023-02-19T08:16:48;101399.47;;;3.84;79.88
17764;BME280;22245;52.832;13.816;2023-02-19T08:20:10;101430.59;;;3.95;79.98
17764;BME280;22245;52.832;13.816;2023-02-19T08:23:31;101436.66;;;3.97;79.72
17764;BME280;22245;52.832;13.816;2023-02-19T08:26:53;101438.94;;;3.85;79.60
17764;BME280;22245;52.832;13.816;2023-02-19T08:30:16;101446.13;;;3.82;79.99
17764;BME280;22245;52.832;13.816;2023-02-19T08:33:38;101443.19;;;3.88;80.17
17764;BME280;22245;52.832;13.816;2023-02-19T08:37:00;101457.56;;;3.81;79.02
17764;BME280;22245;52.832;13.816;2023-02-19T08:40:22;101477.41;;;3.69;80.05
17764;BME280;22245;52.832;13.816;2023-02-19T08:43:43;101475.44;;;3.74;80.12
17764;BME280;22245;52.832;13.816;2023-02-19T08:47:07;101474.03;;;3.86;79.53
17764;BME280;22245;52.832;13.816;2023-02-19T08:50:28;101495.19;;;3.84;78.91
17764;BME280;22245;52.832;13.816;2023-02-19T08:53:50;101493.22;;;3.89;78.80
17764;BME280;22245;52.832;13.816;2023-02-19T08:57:12;101479.56;;;4.00;78.92
17764;BME280;22245;52.832;13.816;2023-02-19T09:00:33;101495.28;;;4.02;77.96
17764;BME280;22245;52.832;13.816;2023-02-19T09:03:56;101494.63;;;3.97;78.53
17764;BME280;22245;52.832;13.816;2023-02-19T09:07:19;101508.31;;;4.05;78.35
17764;BME280;22245;52.832;13.816;2023-02-19T09:10:41;101508.03;;;4.11;78.23
17764;BME280;22245;52.832;13.816;2023-02-19T09:14:03;101509.59;;;4.15;78.26
17764;BME280;22245;52.832;13.816;2023-02-19T09:17:26;101518.81;;;4.07;77.39
17764;BME280;22245;52.832;13.816;2023-02-19T09:20:49;101517.09;;;4.05;78.53
17764;BME280;22245;52.832;13.816;2023-02-19T09:24:11;101528.97;;;4.14;78.10
17764;BME280;22245;52.832;13.816;2023-02-19T09:27:32;101534.84;;;4.21;77.80
17764;BME280;22245;52.832;13.816;2023-02-19T09:30:54;101523.16;;;4.27;77.36
17764;BME280;22245;52.832;13.816;2023-02-19T09:34:16;101537.19;;;4.27;76.31
17764;BME280;22245;52.832;13.816;2023-02-19T09:37:39;101533.41;;;4.33;76.06
17764;BME280;22245;52.832;13.816;2023-02-19T09:41:06;101531.50;;;4.37;75.88
17764;BME280;22245;52.832;13.816;2023-02-19T09:44:31;101528.88;;;4.37;76.40
17764;BME280;22245;52.832;13.816;2023-02-19T09:47:56;101543.19;;;4.50;76.56
17764;BME280;22245;52.832;13.816;2023-02-19T09:51:18;101541.97;;;4.38;75.67
17764;BME280;22245;52.832;13.816;2023-02-19T09:54:42;101556.22;;;4.34;75.23
17764;BME280;22245;52.832;13.816;2023-02-19T09:58:12;101548.19;;;4.37;74.38
17764;BME280;22245;52.832;13.816;2023-02-19T10:01:38;101544.47;;;4.41;74.48
17764;BME280;22245;52.832;13.816;2023-02-19T10:05:00;101557.00;;;4.55;72.99
17764;BME280;22245;52.832;13.816;2023-02-19T10:08:23;101560.91;;;4.66;72.57
17764;BME280;22245;52.832;13.816;2023-02-19T10:11:47;101568.19;;;4.80;72.37
17764;BME280;22245;52.832;13.816;2023-02-19T10:15:13;101575.97;;;4.83;71.13
17764;BME280;22245;52.832;13.816;2023-02-19T10:18:38;101585.03;;;4.77;71.00
17764;BME280;22245;52.832;13.816;2023-02-19T10:22:02;101586.66;;;4.80;70.43
17764;BME280;22245;52.832;13.816;2023-02-19T10:25:25;101604.06;;;4.84;70.43
17764;BME280;22245;52.832;13.816;2023-02-19T10:28:48;101615.25;;;4.89;69.25
17764;BME280;22245;52.832;13.816;2023-02-19T10:32:15;101628.88;;;4.80;68.92
17764;BME280;22245;52.832;13.816;2023-02-19T10:35:51;101615.56;;;4.83;70.16
17764;BME280;22245;52.832;13.816;2023-02-19T10:39:31;101622.97;;;4.93;69.94
17764;BME280;22245;52.832;13.816;2023-02-19T10:43:00;101629.31;;;5.09;69.55
17764;BME280;22245;52.832;13.816;2023-02-19T10:46:26;101636.16;;;5.13;67.14
17764;BME280;22245;52.832;13.816;2023-02-19T10:49:50;101637.03;;;5.13;66.36
17764;BME280;22245;52.832;13.816;2023-02-19T10:53:19;101651.16;;;5.12;67.46
17764;BME280;22245;52.832;13.816;2023-02-19T10:56:42;101657.84;;;5.19;66.07
17764;BME280;22245;52.832;13.816;2023-02-19T11:00:19;101665.69;;;5.21;65.64
17764;BME280;22245;52.832;13.816;2023-02-19T11:03:45;101667.19;;;5.27;65.11
17764;BME280;22245;52.832;13.816;2023-02-19T11:07:08;101649.41;;;5.30;64.08
17764;BME280;22245;52.832;13.816;2023-02-19T11:10:37;101676.88;;;5.26;62.26
17764;BME280;22245;52.832;13.816;2023-02-19T11:14:04;101671.69;;;5.25;62.42
17764;BME280;22245;52.832;13.816;2023-02-19T11:17:28;101669.03;;;5.25;63.50
17764;BME280;22245;52.832;13.816;2023-02-19T11:20:54;101669.72;;;5.28;64.25
17764;BME280;22245;52.832;13.816;2023-02-19T11:24:22;101698.53;;;5.34;61.91
17764;BME280;22245;52.832;13.816;2023-02-19T11:27:53;101688.88;;;5.33;61.52
17764;BME280;22245;52.832;13.816;2023-02-19T11:31:22;101689.38;;;5.42;60.52
17764;BME280;22245;52.832;13.816;2023-02-19T11:34:45;101703.03;;;5.32;60.92
17764;BME280;22245;52.832;13.816;2023-02-19T11:38:10;101710.16;;;5.30;60.51
17764;BME280;22245;52.832;13.816;2023-02-19T11:41:58;101713.66;;;5.31;61.49
17764;BME280;22245;52.832;13.816;2023-02-19T11:45:31;101708.84;;;5.39;62.37
17764;BME280;22245;52.832;13.816;2023-02-19T11:49:05;101709.56;;;5.43;62.23
17764;BME280;22245;52.832;13.816;2023-02-19T11:52:34;101721.69;;;5.47;61.10
17764;BME280;22245;52.832;13.816;2023-02-19T11:56:13;101709.75;;;5.57;61.31
17764;BME280;22245;52.832;13.816;2023-02-19T11:59:42;101724.16;;;5.69;61.20
17764;BME280;22245;52.832;13.816;2023-02-19T12:03:30;101708.00;;;5.75;59.68
17764;BME280;22245;52.832;13.816;2023-02-19T12:07:04;101715.56;;;5.83;58.40
17764;BME280;22245;52.832;13.816;2023-02-19T12:10:37;101706.38;;;5.90;57.93
17764;BME280;22245;52.832;13.816;2023-02-19T12:14:20;101707.25;;;5.91;59.11
17764;BME280;22245;52.832;13.816;2023-02-19T12:18:00;101710.56;;;5.94;57.54
17764;BME280;22245;52.832;13.816;2023-02-19T12:21:39;101716.00;;;5.91;57.46
17764;BME280;22245;52.832;13.816;2023-02-19T12:25:17;101726.44;;;5.94;58.05
17764;BME280;22245;52.832;13.816;2023-02-19T12:28:57;101717.72;;;5.92;57.42
17764;BME280;22245;52.832;13.816;2023-02-19T12:32:45;101727.06;;;5.82;57.76
17764;BME280;22245;52.832;13.816;2023-02-19T12:36:17;101730.16;;;5.90;59.24
17764;BME280;22245;52.832;13.816;2023-02-19T12:39:46;101727.31;;;5.95;57.71
17764;BME280;22245;52.832;13.816;2023-02-19T12:43:14;101738.28;;;6.05;57.51
17764;BME280;22245;52.832;13.816;2023-02-19T12:46:39;101738.50;;;6.00;57.14
17764;BME280;22245;52.832;13.816;2023-02-19T12:50:07;101729.34;;;6.07;57.12
17764;BME280;22245;52.832;13.816;2023-02-19T12:53:39;101728.25;;;6.12;55.73
17764;BME280;22245;52.832;13.816;2023-02-19T12:57:04;101747.41;;;6.17;56.39
17764;BME280;22245;52.832;13.816;2023-02-19T13:00:30;101746.78;;;6.12;55.88
17764;BME280;22245;52.832;13.816;2023-02-19T13:04:10;101753.94;;;6.10;55.31
17764;BME280;22245;52.832;13.816;2023-02-19T13:07:39;101756.88;;;6.21;55.74
17764;BME280;22245;52.832;13.816;2023-02-19T13:11:08;101767.25;;;6.08;55.55
17764;BME280;22245;52.832;13.816;2023-02-19T13:14:34;101760.72;;;6.15;55.74
17764;BME280;22245;52.832;13.816;2023-02-19T13:17:58;101781.72;;;6.18;56.05
17764;BME280;22245;52.832;13.816;2023-02-19T13:21:24;101777.44;;;6.16;55.38
17764;BME280;22245;52.832;13.816;2023-02-19T13:25:08;101773.94;;;6.15;54.95
17764;BME280;22245;52.832;13.816;2023-02-19T13:28:42;101785.38;;;6.16;55.05
17764;BME280;22245;52.832;13.816;2023-02-19T13:36:09;101784.69;;;6.12;53.90
17764;BME280;22245;52.832;13.816;2023-02-19T13:39:32;101786.91;;;6.02;52.53
17764;BME280;22245;52.832;13.816;2023-02-19T13:42:57;101786.97;;;6.01;53.01
17764;BME280;22245;52.832;13.816;2023-02-19T13:46:20;101782.19;;;6.09;52.63
17764;BME280;22245;52.832;13.816;2023-02-19T13:49:47;101791.75;;;6.12;52.70
17764;BME280;22245;52.832;13.816;2023-02-19T13:57:26;101796.66;;;6.19;50.67
17764;BME280;22245;52.832;13.816;2023-02-19T14:00:50;101794.78;;;6.21;50.80
17764;BME280;22245;52.832;13.816;2023-02-19T14:04:19;101811.38;;;6.25;50.72
17764;BME280;22245;52.832;13.816;2023-02-19T14:07:51;101811.28;;;6.27;50.59
17764;BME280;22245;52.832;13.816;2023-02-19T14:11:13;101821.72;;;6.30;49.95
17764;BME280;22245;52.832;13.816;2023-02-19T14:14:36;101829.59;;;6.31;50.84
17764;BME280;22245;52.832;13.816;2023-02-19T14:18:00;101824.16;;;6.34;50.05
17764;BME280;22245;52.832;13.816;2023-02-19T14:21:24;101837.28;;;6.36;50.37
17764;BME280;22245;52.832;13.816;2023-02-19T14:24:54;101831.22;;;6.34;49.77
17764;BME280;22245;52.832;13.816;2023-02-19T14:28:22;101842.88;;;6.12;50.22
17764;BME280;22245;52.832;13.816;2023-02-19T14:31:46;101827.22;;;6.07;49.74
17764;BME280;22245;52.832;13.816;2023-02-19T14:35:18;101830.34;;;6.16;50.38
17764;BME280;22245;52.832;13.816;2023-02-19T14:38:44;101829.19;;;6.21;51.15
17764;BME280;22245;52.832;13.816;2023-02-19T14:42:10;101829.25;;;6.20;51.21
17764;BME280;22245;52.832;13.816;2023-02-19T14:45:40;101831.97;;;6.18;50.69
17764;BME280;22245;52.832;13.816;2023-02-19T14:49:06;101840.84;;;6.17;50.18
17764;BME280;22245;52.832;13.816;2023-02-19T14:52:37;101849.94;;;6.12;50.11
17764;BME280;22245;52.832;13.816;2023-02-19T14:56:03;101841.31;;;6.26;50.12
17764;BME280;22245;52.832;13.816;2023-02-19T14:59:27;101842.19;;;6.26;49.48
17764;BME280;22245;52.832;13.816;2023-02-19T15:02:50;101834.78;;;6.15;48.70
17764;BME280;22245;52.832;13.816;2023-02-19T15:06:14;101835.09;;;6.09;49.12
17764;BME280;22245;52.832;13.816;2023-02-19T15:09:44;101840.06;;;6.15;49.10
17764;BME280;22245;52.832;13.816;2023-02-19T15:13:09;101854.72;;;6.22;48.72
17764;BME280;22245;52.832;13.816;2023-02-19T15:16:36;101854.41;;;6.29;48.93
17764;BME280;22245;52.832;13.816;2023-02-19T15:20:02;101854.41;;;6.29;48.42
17764;BME280;22245;52.832;13.816;2023-02-19T15:23:25;101852.53;;;6.31;48.49
17764;BME280;22245;52.832;13.816;2023-02-19T15:26:52;101869.66;;;6.23;48.62
17764;BME280;22245;52.832;13.816;2023-02-19T15:30:21;101868.41;;;6.31;48.61
17764;BME280;22245;52.832;13.816;2023-02-19T15:33:50;101871.84;;;6.33;48.37
17764;BME280;22245;52.832;13.816;2023-02-19T15:37:13;101874.47;;;6.33;47.11
17764;BME280;22245;52.832;13.816;2023-02-19T15:40:35;101879.34;;;6.23;46.01
17764;BME280;22245;52.832;13.816;2023-02-19T15:44:08;101885.03;;;6.15;43.94
17764;BME280;22245;52.832;13.816;2023-02-19T15:47:36;101885.66;;;6.20;45.04
17764;BME280;22245;52.832;13.816;2023-02-19T15:51:03;101896.41;;;6.17;43.45
17764;BME280;22245;52.832;13.816;2023-02-19T15:54:34;101891.88;;;6.19;44.60
17764;BME280;22245;52.832;13.816;2023-02-19T15:58:03;101895.09;;;6.26;44.53
17764;BME280;22245;52.832;13.816;2023-02-19T16:01:31;101897.59;;;6.29;44.00
17764;BME280;22245;52.832;13.816;2023-02-19T16:04:53;101910.16;;;6.24;43.73
17764;BME280;22245;52.832;13.816;2023-02-19T16:08:17;101904.97;;;6.22;43.85
17764;BME280;22245;52.832;13.816;2023-02-19T16:11:48;101899.75;;;6.21;44.03
17764;BME280;22245;52.832;13.816;2023-02-19T16:15:12;101897.63;;;6.10;44.25
17764;BME280;22245;52.832;13.816;2023-02-19T16:18:35;101909.00;;;6.12;44.88
17764;BME280;22245;52.832;13.816;2023-02-19T16:21:57;101922.06;;;6.15;44.94
17764;BME280;22245;52.832;13.816;2023-02-19T16:25:27;101932.56;;;6.17;45.35
17764;BME280;22245;52.832;13.816;2023-02-19T16:28:50;101934.22;;;6.19;45.17
17764;BME280;22245;52.832;13.816;2023-02-19T16:32:15;101942.06;;;6.21;45.44
17764;BME280;22245;52.832;13.816;2023-02-19T16:35:39;101950.16;;;6.18;46.19
17764;BME280;22245;52.832;13.816;2023-02-19T16:43:26;101955.03;;;6.08;47.96
17764;BME280;22245;52.832;13.816;2023-02-19T16:46:51;101972.16;;;5.99;49.13
17764;BME280;22245;52.832;13.816;2023-02-19T16:50:15;101980.38;;;5.93;49.91
17764;BME280;22245;52.832;13.816;2023-02-19T16:53:37;101977.13;;;5.86;50.23
17764;BME280;22245;52.832;13.816;2023-02-19T16:56:59;101977.47;;;5.78;50.60
17764;BME280;22245;52.832;13.816;2023-02-19T17:00:22;101976.03;;;5.71;50.67
17764;BME280;22245;52.832;13.816;2023-02-19T17:03:46;101982.44;;;5.65;51.49
17764;BME280;22245;52.832;13.816;2023-02-19T17:07:10;101978.31;;;5.60;51.16
17764;BME280;22245;52.832;13.816;2023-02-19T17:10:34;101972.53;;;5.52;52.47
17764;BME280;22245;52.832;13.816;2023-02-19T17:13:55;101981.69;;;5.43;53.22
17764;BME280;22245;52.832;13.816;2023-02-19T17:17:17;101988.97;;;5.38;53.52
17764;BME280;22245;52.832;13.816;2023-02-19T17:20:42;101988.50;;;5.28;54.10
17764;BME280;22245;52.832;13.816;2023-02-19T17:24:08;101987.97;;;5.19;54.36
17764;BME280;22245;52.832;13.816;2023-02-19T17:27:30;101996.16;;;5.13;54.26
17764;BME280;22245;52.832;13.816;2023-02-19T17:30:52;101992.91;;;5.06;54.18
17764;BME280;22245;52.832;13.816;2023-02-19T17:34:14;101992.31;;;5.00;54.60
17764;BME280;22245;52.832;13.816;2023-02-19T17:37:37;101992.59;;;4.92;55.25
17764;BME280;22245;52.832;13.816;2023-02-19T17:40:59;101992.06;;;4.84;55.38
17764;BME280;22245;52.832;13.816;2023-02-19T17:44:21;102002.88;;;4.77;55.95
17764;BME280;22245;52.832;13.816;2023-02-19T17:47:43;102002.25;;;4.71;56.78
17764;BME280;22245;52.832;13.816;2023-02-19T17:51:04;102006.94;;;4.64;58.06
17764;BME280;22245;52.832;13.816;2023-02-19T17:54:27;102002.75;;;4.58;58.79
17764;BME280;22245;52.832;13.816;2023-02-19T17:57:50;101997.72;;;4.52;57.52
17764;BME280;22245;52.832;13.816;2023-02-19T18:01:12;102002.38;;;4.45;58.25
17764;BME280;22245;52.832;13.816;2023-02-19T18:04:34;102006.13;;;4.40;58.42
17764;BME280;22245;52.832;13.816;2023-02-19T18:07:59;102012.50;;;4.34;58.14